sensor_id;sensor_type;location;lat;lon;timestamp;pressure;altitude;pressure_sealevel;temperature
33267;BMP180;19638;49.080;11.896;2023-08-20T00:01:14;96767.00;;;23.10
33267;BMP180;19638;49.080;11.896;2023-08-20T00:05:21;96778.00;;;23.10
33267;BMP180;19638;49.080;11.896;2023-08-20T00:09:24;96777.00;;;23.10
33267;BMP180;19638;49.080;11.896;2023-08-20T00:13:28;96766.00;;;23.00
33267;BMP180;19638;49.080;11.896;2023-08-20T00:17:36;96764.00;;;23.00
33267;BMP180;19638;49.080;11.896;2023-08-20T00:21:42;96754.00;;;23.00
33267;BMP180;19638;49.080;11.896;2023-08-20T00:25:46;96749.00;;;23.00
33267;BMP180;19638;49.080;11.896;2023-08-20T00:29:49;96746.00;;;23.00
33267;BMP180;19638;49.080;11.896;2023-08-20T00:33:53;96736.00;;;23.00
33267;BMP180;19638;49.080;11.896;2023-08-20T00:38:10;96735.00;;;22.90
33267;BMP180;19638;49.080;11.896;2023-08-20T00:42:15;96726.00;;;22.80
33267;BMP180;19638;49.080;11.896;2023-08-20T00:46:18;96729.00;;;22.80
33267;BMP180;19638;49.080;11.896;2023-08-20T00:50:22;96730.00;;;22.80
33267;BMP180;19638;49.080;11.896;2023-08-20T00:54:27;96743.00;;;22.80
33267;BMP180;19638;49.080;11.896;2023-08-20T00:58:33;96744.00;;;22.80
33267;BMP180;19638;49.080;11.896;2023-08-20T01:02:37;96744.00;;;22.90
33267;BMP180;19638;49.080;11.896;2023-08-20T01:06:46;96742.00;;;22.90
33267;BMP180;19638;49.080;11.896;2023-08-20T01:10:57;96749.00;;;22.90
33267;BMP180;19638;49.080;11.896;2023-08-20T01:15:07;96752.00;;;22.90
33267;BMP180;19638;49.080;11.896;2023-08-20T01:19:20;96747.00;;;22.90
33267;BMP180;19638;49.080;11.896;2023-08-20T01:23:49;96755.00;;;22.90
33267;BMP180;19638;49.080;11.896;2023-08-20T01:28:06;96755.00;;;22.90
33267;BMP180;19638;49.080;11.896;2023-08-20T01:32:13;96754.00;;;22.90
33267;BMP180;19638;49.080;11.896;2023-08-20T01:36:19;96759.00;;;23.00
33267;BMP180;19638;49.080;11.896;2023-08-20T01:40:23;96762.00;;;22.90
33267;BMP180;19638;49.080;11.896;2023-08-20T01:44:26;96761.00;;;22.90
33267;BMP180;19638;49.080;11.896;2023-08-20T01:48:30;96770.00;;;22.90
33267;BMP180;19638;49.080;11.896;2023-08-20T01:52:36;96774.00;;;22.90
33267;BMP180;19638;49.080;11.896;2023-08-20T01:56:42;96774.00;;;22.90
33267;BMP180;19638;49.080;11.896;2023-08-20T02:00:47;96771.00;;;22.90
33267;BMP180;19638;49.080;11.896;2023-08-20T02:04:52;96776.00;;;22.80
33267;BMP180;19638;49.080;11.896;2023-08-20T02:08:55;96785.00;;;22.80
33267;BMP180;19638;49.080;11.896;2023-08-20T02:12:59;96776.00;;;22.80
33267;BMP180;19638;49.080;11.896;2023-08-20T02:17:04;96774.00;;;22.80
33267;BMP180;19638;49.080;11.896;2023-08-20T02:21:08;96775.00;;;22.70
33267;BMP180;19638;49.080;11.896;2023-08-20T02:25:11;96784.00;;;22.70
33267;BMP180;19638;49.080;11.896;2023-08-20T02:29:15;96786.00;;;22.60
33267;BMP180;19638;49.080;11.896;2023-08-20T02:33:18;96788.00;;;22.60
33267;BMP180;19638;49.080;11.896;2023-08-20T02:37:22;96795.00;;;22.50
33267;BMP180;19638;49.080;11.896;2023-08-20T02:41:26;96794.00;;;22.50
33267;BMP180;19638;49.080;11.896;2023-08-20T02:45:31;96801.00;;;22.40
33267;BMP180;19638;49.080;11.896;2023-08-20T02:49:35;96802.00;;;22.40
33267;BMP180;19638;49.080;11.896;2023-08-20T02:53:40;96811.00;;;22.40
33267;BMP180;19638;49.080;11.896;2023-08-20T02:57:43;96812.00;;;22.40
33267;BMP180;19638;49.080;11.896;2023-08-20T03:01:46;96810.00;;;22.40
33267;BMP180;19638;49.080;11.896;2023-08-20T03:05:52;96814.00;;;22.30
33267;BMP180;19638;49.080;11.896;2023-08-20T03:10:01;96812.00;;;22.30
33267;BMP180;19638;49.080;11.896;2023-08-20T03:14:08;96814.00;;;22.20
33267;BMP180;19638;49.080;11.896;2023-08-20T03:18:12;96814.00;;;22.20
33267;BMP180;19638;49.080;11.896;2023-08-20T03:22:15;96805.00;;;22.20
33267;BMP180;19638;49.080;11.896;2023-08-20T03:26:20;96803.00;;;22.10
33267;BMP180;19638;49.080;11.896;2023-08-20T03:30:24;96805.00;;;22.00
33267;BMP180;19638;49.080;11.896;2023-08-20T03:34:27;96804.00;;;22.00
33267;BMP180;19638;49.080;11.896;2023-08-20T03:38:32;96807.00;;;21.90
33267;BMP180;19638;49.080;11.896;2023-08-20T03:42:40;96804.00;;;21.80
33267;BMP180;19638;49.080;11.896;2023-08-20T03:46:43;96800.00;;;21.60
33267;BMP180;19638;49.080;11.896;2023-08-20T03:50:47;96800.00;;;21.50
33267;BMP180;19638;49.080;11.896;2023-08-20T03:54:52;96797.00;;;21.40
33267;BMP180;19638;49.080;11.896;2023-08-20T03:59:02;96796.00;;;21.30
33267;BMP180;19638;49.080;11.896;2023-08-20T04:03:06;96791.00;;;21.20
33267;BMP180;19638;49.080;11.896;2023-08-20T04:07:09;96789.00;;;21.10
33267;BMP180;19638;49.080;11.896;2023-08-20T04:11:12;96799.00;;;21.00
33267;BMP180;19638;49.080;11.896;2023-08-20T04:15:19;96794.00;;;20.90
33267;BMP180;19638;49.080;11.896;2023-08-20T04:19:22;96799.00;;;20.90
33267;BMP180;19638;49.080;11.896;2023-08-20T04:23:25;96807.00;;;20.80
33267;BMP180;19638;49.080;11.896;2023-08-20T04:27:28;96813.00;;;20.90
33267;BMP180;19638;49.080;11.896;2023-08-20T04:31:35;96803.00;;;21.00
33267;BMP180;19638;49.080;11.896;2023-08-20T04:35:38;96813.00;;;21.00
33267;BMP180;19638;49.080;11.896;2023-08-20T04:39:42;96807.00;;;21.10
33267;BMP180;19638;49.080;11.896;2023-08-20T04:43:45;96805.00;;;21.20
33267;BMP180;19638;49.080;11.896;2023-08-20T04:47:52;96810.00;;;21.20
33267;BMP180;19638;49.080;11.896;2023-08-20T04:51:56;96817.00;;;21.30
33267;BMP180;19638;49.080;11.896;2023-08-20T04:56:00;96816.00;;;21.30
33267;BMP180;19638;49.080;11.896;2023-08-20T05:00:04;96818.00;;;21.40
33267;BMP180;19638;49.080;11.896;2023-08-20T05:04:09;96818.00;;;21.40
33267;BMP180;19638;49.080;11.896;2023-08-20T05:08:14;96827.00;;;21.50
33267;BMP180;19638;49.080;11.896;2023-08-20T05:12:19;96822.00;;;21.60
33267;BMP180;19638;49.080;11.896;2023-08-20T05:16:23;96825.00;;;21.70
33267;BMP180;19638;49.080;11.896;2023-08-20T05:20:29;96830.00;;;21.80
33267;BMP180;19638;49.080;11.896;2023-08-20T05:24:32;96829.00;;;21.90
33267;BMP180;19638;49.080;11.896;2023-08-20T05:28:35;96840.00;;;22.00
33267;BMP180;19638;49.080;11.896;2023-08-20T05:32:38;96841.00;;;22.10
33267;BMP180;19638;49.080;11.896;2023-08-20T05:36:49;96840.00;;;22.30
33267;BMP180;19638;49.080;11.896;2023-08-20T05:40:52;96846.00;;;22.50
33267;BMP180;19638;49.080;11.896;2023-08-20T05:44:58;96848.00;;;22.70
33267;BMP180;19638;49.080;11.896;2023-08-20T05:49:03;96841.00;;;22.80
33267;BMP180;19638;49.080;11.896;2023-08-20T05:53:13;96844.00;;;23.10
33267;BMP180;19638;49.080;11.896;2023-08-20T05:57:19;96842.00;;;23.20
33267;BMP180;19638;49.080;11.896;2023-08-20T06:01:24;96848.00;;;23.40
33267;BMP180;19638;49.080;11.896;2023-08-20T06:05:29;96852.00;;;23.60
33267;BMP180;19638;49.080;11.896;2023-08-20T06:09:33;96852.00;;;23.90
33267;BMP180;19638;49.080;11.896;2023-08-20T06:13:39;96849.00;;;24.20
33267;BMP180;19638;49.080;11.896;2023-08-20T06:17:46;96852.00;;;24.50
33267;BMP180;19638;49.080;11.896;2023-08-20T06:21:49;96851.00;;;24.80
33267;BMP180;19638;49.080;11.896;2023-08-20T06:25:54;96857.00;;;25.10
33267;BMP180;19638;49.080;11.896;2023-08-20T06:30:01;96864.00;;;25.50
33267;BMP180;19638;49.080;11.896;2023-08-20T06:34:08;96863.00;;;25.70
33267;BMP180;19638;49.080;11.896;2023-08-20T06:38:11;96863.00;;;26.00
33267;BMP180;19638;49.080;11.896;2023-08-20T06:42:16;96865.00;;;26.30
33267;BMP180;19638;49.080;11.896;2023-08-20T06:46:21;96871.00;;;26.60
33267;BMP180;19638;49.080;11.896;2023-08-20T06:50:24;96878.00;;;26.80
33267;BMP180;19638;49.080;11.896;2023-08-20T06:54:29;96874.00;;;27.10
33267;BMP180;19638;49.080;11.896;2023-08-20T06:58:34;96876.00;;;27.40
33267;BMP180;19638;49.080;11.896;2023-08-20T07:02:42;96878.00;;;27.70
33267;BMP180;19638;49.080;11.896;2023-08-20T07:06:46;96884.00;;;27.90
33267;BMP180;19638;49.080;11.896;2023-08-20T07:10:49;96881.00;;;28.20
33267;BMP180;19638;49.080;11.896;2023-08-20T07:14:55;96882.00;;;28.60
33267;BMP180;19638;49.080;11.896;2023-08-20T07:19:00;96885.00;;;29.10
33267;BMP180;19638;49.080;11.896;2023-08-20T07:23:04;96892.00;;;29.70
33267;BMP180;19638;49.080;11.896;2023-08-20T07:27:10;96888.00;;;30.50
33267;BMP180;19638;49.080;11.896;2023-08-20T07:31:19;96895.00;;;31.30
33267;BMP180;19638;49.080;11.896;2023-08-20T07:35:23;96895.00;;;32.10
33267;BMP180;19638;49.080;11.896;2023-08-20T07:39:26;96901.00;;;32.70
33267;BMP180;19638;49.080;11.896;2023-08-20T07:43:30;96905.00;;;33.20
33267;BMP180;19638;49.080;11.896;2023-08-20T07:47:35;96893.00;;;33.40
33267;BMP180;19638;49.080;11.896;2023-08-20T07:51:39;96899.00;;;33.70
33267;BMP180;19638;49.080;11.896;2023-08-20T07:55:45;96897.00;;;34.10
33267;BMP180;19638;49.080;11.896;2023-08-20T07:59:52;96899.00;;;34.20
33267;BMP180;19638;49.080;11.896;2023-08-20T08:04:04;96890.00;;;34.60
33267;BMP180;19638;49.080;11.896;2023-08-20T08:08:07;96900.00;;;34.90
33267;BMP180;19638;49.080;11.896;2023-08-20T08:12:14;96905.00;;;35.10
33267;BMP180;19638;49.080;11.896;2023-08-20T08:16:18;96901.00;;;35.30
33267;BMP180;19638;49.080;11.896;2023-08-20T08:20:24;96906.00;;;35.60
33267;BMP180;19638;49.080;11.896;2023-08-20T08:24:32;96920.00;;;35.90
33267;BMP180;19638;49.080;11.896;2023-08-20T08:28:43;96923.00;;;35.80
33267;BMP180;19638;49.080;11.896;2023-08-20T08:32:46;96930.00;;;36.20
33267;BMP180;19638;49.080;11.896;2023-08-20T08:36:55;96925.00;;;36.60
33267;BMP180;19638;49.080;11.896;2023-08-20T08:41:01;96924.00;;;36.80
33267;BMP180;19638;49.080;11.896;2023-08-20T08:45:05;96922.00;;;36.80
33267;BMP180;19638;49.080;11.896;2023-08-20T08:49:10;96927.00;;;36.80
33267;BMP180;19638;49.080;11.896;2023-08-20T08:53:16;96928.00;;;36.80
33267;BMP180;19638;49.080;11.896;2023-08-20T08:57:20;96932.00;;;37.00
33267;BMP180;19638;49.080;11.896;2023-08-20T09:01:26;96930.00;;;37.40
33267;BMP180;19638;49.080;11.896;2023-08-20T09:05:29;96935.00;;;37.60
33267;BMP180;19638;49.080;11.896;2023-08-20T09:09:33;96935.00;;;37.80
33267;BMP180;19638;49.080;11.896;2023-08-20T09:13:38;96930.00;;;38.10
33267;BMP180;19638;49.080;11.896;2023-08-20T09:17:44;96939.00;;;38.10
33267;BMP180;19638;49.080;11.896;2023-08-20T09:21:49;96940.00;;;38.10
33267;BMP180;19638;49.080;11.896;2023-08-20T09:25:57;96935.00;;;38.30
33267;BMP180;19638;49.080;11.896;2023-08-20T09:30:02;96940.00;;;38.50
33267;BMP180;19638;49.080;11.896;2023-08-20T09:34:10;96940.00;;;38.80
33267;BMP180;19638;49.080;11.896;2023-08-20T09:38:19;96947.00;;;39.10
33267;BMP180;19638;49.080;11.896;2023-08-20T09:42:25;96949.00;;;39.40
33267;BMP180;19638;49.080;11.896;2023-08-20T09:46:31;96941.00;;;39.60
33267;BMP180;19638;49.080;11.896;2023-08-20T09:50:48;96950.00;;;39.80
33267;BMP180;19638;49.080;11.896;2023-08-20T09:55:00;96947.00;;;39.90
33267;BMP180;19638;49.080;11.896;2023-08-20T09:59:06;96948.00;;;39.90
33267;BMP180;19638;49.080;11.896;2023-08-20T10:03:09;96953.00;;;40.00
33267;BMP180;19638;49.080;11.896;2023-08-20T10:07:13;96947.00;;;40.00
33267;BMP180;19638;49.080;11.896;2023-08-20T10:11:17;96957.00;;;39.90
33267;BMP180;19638;49.080;11.896;2023-08-20T10:15:26;96943.00;;;39.50
33267;BMP180;19638;49.080;11.896;2023-08-20T10:19:30;96948.00;;;39.70
33267;BMP180;19638;49.080;11.896;2023-08-20T10:23:40;96952.00;;;40.00
33267;BMP180;19638;49.080;11.896;2023-08-20T10:27:43;96944.00;;;40.40
33267;BMP180;19638;49.080;11.896;2023-08-20T10:31:49;96946.00;;;40.50
33267;BMP180;19638;49.080;11.896;2023-08-20T10:36:07;96954.00;;;40.60
33267;BMP180;19638;49.080;11.896;2023-08-20T10:40:10;96955.00;;;40.90
33267;BMP180;19638;49.080;11.896;2023-08-20T10:44:16;96950.00;;;41.20
33267;BMP180;19638;49.080;11.896;2023-08-20T10:48:26;96948.00;;;41.40
33267;BMP180;19638;49.080;11.896;2023-08-20T10:52:32;96953.00;;;41.50
33267;BMP180;19638;49.080;11.896;2023-08-20T10:56:42;96949.00;;;41.40
33267;BMP180;19638;49.080;11.896;2023-08-20T11:01:12;96942.00;;;41.30
33267;BMP180;19638;49.080;11.896;2023-08-20T11:05:21;96945.00;;;41.40
33267;BMP180;19638;49.080;11.896;2023-08-20T11:09:27;96944.00;;;41.30
33267;BMP180;19638;49.080;11.896;2023-08-20T11:13:34;96940.00;;;41.10
33267;BMP180;19638;49.080;11.896;2023-08-20T11:17:42;96939.00;;;41.20
33267;BMP180;19638;49.080;11.896;2023-08-20T11:21:59;96943.00;;;41.60
33267;BMP180;19638;49.080;11.896;2023-08-20T11:26:03;96936.00;;;41.70
33267;BMP180;19638;49.080;11.896;2023-08-20T11:30:07;96936.00;;;41.80
33267;BMP180;19638;49.080;11.896;2023-08-20T11:34:11;96938.00;;;41.80
33267;BMP180;19638;49.080;11.896;2023-08-20T11:38:17;96934.00;;;41.70
33267;BMP180;19638;49.080;11.896;2023-08-20T11:42:20;96932.00;;;41.90
33267;BMP180;19638;49.080;11.896;2023-08-20T11:46:26;96940.00;;;42.20
33267;BMP180;19638;49.080;11.896;2023-08-20T11:50:29;96934.00;;;42.50
33267;BMP180;19638;49.080;11.896;2023-08-20T11:54:39;96935.00;;;42.40
33267;BMP180;19638;49.080;11.896;2023-08-20T11:58:49;96929.00;;;42.30
33267;BMP180;19638;49.080;11.896;2023-08-20T12:02:53;96933.00;;;41.90
33267;BMP180;19638;49.080;11.896;2023-08-20T12:07:07;96934.00;;;41.00
33267;BMP180;19638;49.080;11.896;2023-08-20T12:11:12;96933.00;;;40.30
33267;BMP180;19638;49.080;11.896;2023-08-20T12:15:16;96920.00;;;39.80
33267;BMP180;19638;49.080;11.896;2023-08-20T12:19:22;96917.00;;;39.40
33267;BMP180;19638;49.080;11.896;2023-08-20T12:23:26;96914.00;;;39.10
33267;BMP180;19638;49.080;11.896;2023-08-20T12:27:34;96903.00;;;38.90
33267;BMP180;19638;49.080;11.896;2023-08-20T12:31:40;96906.00;;;38.80
33267;BMP180;19638;49.080;11.896;2023-08-20T12:35:43;96902.00;;;38.70
33267;BMP180;19638;49.080;11.896;2023-08-20T12:39:47;96902.00;;;38.70
33267;BMP180;19638;49.080;11.896;2023-08-20T12:43:52;96899.00;;;38.60
33267;BMP180;19638;49.080;11.896;2023-08-20T12:47:58;96894.00;;;38.50
33267;BMP180;19638;49.080;11.896;2023-08-20T12:52:05;96892.00;;;38.30
33267;BMP180;19638;49.080;11.896;2023-08-20T12:56:10;96884.00;;;38.10
33267;BMP180;19638;49.080;11.896;2023-08-20T13:00:16;96886.00;;;38.00
33267;BMP180;19638;49.080;11.896;2023-08-20T13:04:21;96874.00;;;38.00
33267;BMP180;19638;49.080;11.896;2023-08-20T13:08:24;96874.00;;;37.80
33267;BMP180;19638;49.080;11.896;2023-08-20T13:12:28;96868.00;;;37.80
33267;BMP180;19638;49.080;11.896;2023-08-20T13:16:35;96868.00;;;37.80
33267;BMP180;19638;49.080;11.896;2023-08-20T13:20:43;96870.00;;;37.90
33267;BMP180;19638;49.080;11.896;2023-08-20T13:24:46;96868.00;;;38.10
33267;BMP180;19638;49.080;11.896;2023-08-20T13:28:52;96866.00;;;38.30
33267;BMP180;19638;49.080;11.896;2023-08-20T13:32:56;96863.00;;;38.40
33267;BMP180;19638;49.080;11.896;2023-08-20T13:37:00;96865.00;;;38.50
33267;BMP180;19638;49.080;11.896;2023-08-20T13:41:04;96860.00;;;38.80
33267;BMP180;19638;49.080;11.896;2023-08-20T13:45:07;96861.00;;;39.40
33267;BMP180;19638;49.080;11.896;2023-08-20T13:49:15;96850.00;;;40.00
33267;BMP180;19638;49.080;11.896;2023-08-20T13:53:18;96851.00;;;40.60
33267;BMP180;19638;49.080;11.896;2023-08-20T13:57:21;96851.00;;;41.00
33267;BMP180;19638;49.080;11.896;2023-08-20T14:01:24;96845.00;;;41.40
33267;BMP180;19638;49.080;11.896;2023-08-20T14:05:29;96853.00;;;41.60
33267;BMP180;19638;49.080;11.896;2023-08-20T14:09:33;96846.00;;;41.90
33267;BMP180;19638;49.080;11.896;2023-08-20T14:13:37;96854.00;;;42.00
33267;BMP180;19638;49.080;11.896;2023-08-20T14:17:44;96846.00;;;42.00
33267;BMP180;19638;49.080;11.896;2023-08-20T14:21:49;96846.00;;;42.20
33267;BMP180;19638;49.080;11.896;2023-08-20T14:25:57;96842.00;;;42.20
33267;BMP180;19638;49.080;11.896;2023-08-20T14:30:03;96853.00;;;42.40
33267;BMP180;19638;49.080;11.896;2023-08-20T14:34:07;96850.00;;;42.30
33267;BMP180;19638;49.080;11.896;2023-08-20T14:38:12;96842.00;;;42.30
33267;BMP180;19638;49.080;11.896;2023-08-20T14:42:18;96840.00;;;42.20
33267;BMP180;19638;49.080;11.896;2023-08-20T14:46:22;96839.00;;;42.40
33267;BMP180;19638;49.080;11.896;2023-08-20T14:50:25;96830.00;;;42.60
33267;BMP180;19638;49.080;11.896;2023-08-20T14:54:30;96822.00;;;42.60
33267;BMP180;19638;49.080;11.896;2023-08-20T14:58:34;96825.00;;;42.40
33267;BMP180;19638;49.080;11.896;2023-08-20T15:02:37;96824.00;;;42.40
33267;BMP180;19638;49.080;11.896;2023-08-20T15:06:41;96821.00;;;42.30
33267;BMP180;19638;49.080;11.896;2023-08-20T15:10:55;96819.00;;;42.00
33267;BMP180;19638;49.080;11.896;2023-08-20T15:14:59;96818.00;;;42.00
33267;BMP180;19638;49.080;11.896;2023-08-20T15:19:03;96810.00;;;41.80
33267;BMP180;19638;49.080;11.896;2023-08-20T15:23:07;96814.00;;;41.60
33267;BMP180;19638;49.080;11.896;2023-08-20T15:27:12;96814.00;;;41.40
33267;BMP180;19638;49.080;11.896;2023-08-20T15:31:16;96817.00;;;41.30
33267;BMP180;19638;49.080;11.896;2023-08-20T15:35:19;96821.00;;;41.20
33267;BMP180;19638;49.080;11.896;2023-08-20T15:39:22;96819.00;;;41.20
33267;BMP180;19638;49.080;11.896;2023-08-20T15:43:27;96816.00;;;41.30
33267;BMP180;19638;49.080;11.896;2023-08-20T15:47:30;96821.00;;;41.40
33267;BMP180;19638;49.080;11.896;2023-08-20T15:51:36;96817.00;;;41.40
33267;BMP180;19638;49.080;11.896;2023-08-20T15:55:40;96820.00;;;41.40
33267;BMP180;19638;49.080;11.896;2023-08-20T15:59:44;96811.00;;;41.20
33267;BMP180;19638;49.080;11.896;2023-08-20T16:03:52;96818.00;;;41.40
33267;BMP180;19638;49.080;11.896;2023-08-20T16:08:01;96820.00;;;41.40
33267;BMP180;19638;49.080;11.896;2023-08-20T16:12:05;96816.00;;;41.40
33267;BMP180;19638;49.080;11.896;2023-08-20T16:16:12;96818.00;;;41.60
33267;BMP180;19638;49.080;11.896;2023-08-20T16:20:17;96813.00;;;41.60
33267;BMP180;19638;49.080;11.896;2023-08-20T16:24:22;96818.00;;;41.70
33267;BMP180;19638;49.080;11.896;2023-08-20T16:28:26;96815.00;;;42.00
33267;BMP180;19638;49.080;11.896;2023-08-20T16:32:31;96809.00;;;42.10
33267;BMP180;19638;49.080;11.896;2023-08-20T16:36:35;96815.00;;;42.30
33267;BMP180;19638;49.080;11.896;2023-08-20T16:40:38;96818.00;;;42.30
33267;BMP180;19638;49.080;11.896;2023-08-20T16:44:41;96820.00;;;42.40
33267;BMP180;19638;49.080;11.896;2023-08-20T16:48:51;96816.00;;;42.20
33267;BMP180;19638;49.080;11.896;2023-08-20T16:52:55;96819.00;;;42.10
33267;BMP180;19638;49.080;11.896;2023-08-20T16:57:01;96822.00;;;41.90
33267;BMP180;19638;49.080;11.896;2023-08-20T17:01:06;96818.00;;;41.80
33267;BMP180;19638;49.080;11.896;2023-08-20T17:05:10;96825.00;;;41.60
33267;BMP180;19638;49.080;11.896;2023-08-20T17:09:14;96824.00;;;41.50
33267;BMP180;19638;49.080;11.896;2023-08-20T17:13:17;96821.00;;;41.20
33267;BMP180;19638;49.080;11.896;2023-08-20T17:17:27;96816.00;;;40.90
33267;BMP180;19638;49.080;11.896;2023-08-20T17:21:33;96826.00;;;40.70
33267;BMP180;19638;49.080;11.896;2023-08-20T17:25:36;96831.00;;;39.90
33267;BMP180;19638;49.080;11.896;2023-08-20T17:29:41;96828.00;;;38.80
33267;BMP180;19638;49.080;11.896;2023-08-20T17:33:44;96821.00;;;37.80
33267;BMP180;19638;49.080;11.896;2023-08-20T17:37:51;96823.00;;;36.90
33267;BMP180;19638;49.080;11.896;2023-08-20T17:41:56;96820.00;;;36.10
33267;BMP180;19638;49.080;11.896;2023-08-20T17:46:01;96832.00;;;35.40
33267;BMP180;19638;49.080;11.896;2023-08-20T17:50:06;96821.00;;;34.80
33267;BMP180;19638;49.080;11.896;2023-08-20T17:54:12;96824.00;;;34.30
33267;BMP180;19638;49.080;11.896;2023-08-20T17:58:20;96825.00;;;33.90
33267;BMP180;19638;49.080;11.896;2023-08-20T18:02:24;96829.00;;;33.50
33267;BMP180;19638;49.080;11.896;2023-08-20T18:06:29;96834.00;;;33.10
33267;BMP180;19638;49.080;11.896;2023-08-20T18:10:34;96836.00;;;32.70
33267;BMP180;19638;49.080;11.896;2023-08-20T18:14:37;96835.00;;;32.40
33267;BMP180;19638;49.080;11.896;2023-08-20T18:18:40;96836.00;;;32.10
33267;BMP180;19638;49.080;11.896;2023-08-20T18:22:46;96841.00;;;31.80
33267;BMP180;19638;49.080;11.896;2023-08-20T18:26:54;96834.00;;;31.50
33267;BMP180;19638;49.080;11.896;2023-08-20T18:30:59;96837.00;;;31.30
33267;BMP180;19638;49.080;11.896;2023-08-20T18:35:06;96839.00;;;31.00
33267;BMP180;19638;49.080;11.896;2023-08-20T18:39:10;96850.00;;;30.80
33267;BMP180;19638;49.080;11.896;2023-08-20T18:43:25;96852.00;;;30.50
33267;BMP180;19638;49.080;11.896;2023-08-20T18:47:28;96863.00;;;30.20
33267;BMP180;19638;49.080;11.896;2023-08-20T18:51:32;96864.00;;;29.70
33267;BMP180;19638;49.080;11.896;2023-08-20T18:55:35;96862.00;;;29.20
33267;BMP180;19638;49.080;11.896;2023-08-20T18:59:45;96866.00;;;28.80
33267;BMP180;19638;49.080;11.896;2023-08-20T19:03:54;96865.00;;;28.40
33267;BMP180;19638;49.080;11.896;2023-08-20T19:07:57;96875.00;;;28.00
33267;BMP180;19638;49.080;11.896;2023-08-20T19:12:00;96875.00;;;27.70
33267;BMP180;19638;49.080;11.896;2023-08-20T19:16:05;96876.00;;;27.40
33267;BMP180;19638;49.080;11.896;2023-08-20T19:20:09;96877.00;;;27.20
33267;BMP180;19638;49.080;11.896;2023-08-20T19:24:15;96879.00;;;27.00
33267;BMP180;19638;49.080;11.896;2023-08-20T19:28:18;96883.00;;;26.70
33267;BMP180;19638;49.080;11.896;2023-08-20T19:32:22;96884.00;;;26.60
33267;BMP180;19638;49.080;11.896;2023-08-20T19:36:28;96881.00;;;26.40
33267;BMP180;19638;49.080;11.896;2023-08-20T19:40:33;96884.00;;;26.20
33267;BMP180;19638;49.080;11.896;2023-08-20T19:44:39;96886.00;;;26.10
33267;BMP180;19638;49.080;11.896;2023-08-20T19:48:44;96891.00;;;25.90
33267;BMP180;19638;49.080;11.896;2023-08-20T19:52:50;96890.00;;;25.70
33267;BMP180;19638;49.080;11.896;2023-08-20T19:56:53;96891.00;;;25.60
33267;BMP180;19638;49.080;11.896;2023-08-20T20:00:57;96897.00;;;25.40
33267;BMP180;19638;49.080;11.896;2023-08-20T20:05:04;96887.00;;;25.20
33267;BMP180;19638;49.080;11.896;2023-08-20T20:09:12;96891.00;;;25.10
33267;BMP180;19638;49.080;11.896;2023-08-20T20:13:15;96895.00;;;25.00
33267;BMP180;19638;49.080;11.896;2023-08-20T20:17:19;96897.00;;;24.80
33267;BMP180;19638;49.080;11.896;2023-08-20T20:21:26;96901.00;;;24.70
33267;BMP180;19638;49.080;11.896;2023-08-20T20:25:30;96898.00;;;24.60
33267;BMP180;19638;49.080;11.896;2023-08-20T20:29:40;96901.00;;;24.50
33267;BMP180;19638;49.080;11.896;2023-08-20T20:33:48;96892.00;;;24.40
33267;BMP180;19638;49.080;11.896;2023-08-20T20:37:53;96886.00;;;24.30
33267;BMP180;19638;49.080;11.896;2023-08-20T20:42:01;96897.00;;;24.20
33267;BMP180;19638;49.080;11.896;2023-08-20T20:46:08;96903.00;;;24.20
33267;BMP180;19638;49.080;11.896;2023-08-20T20:50:11;96895.00;;;24.10
33267;BMP180;19638;49.080;11.896;2023-08-20T20:54:22;96895.00;;;24.10
33267;BMP180;19638;49.080;11.896;2023-08-20T20:58:25;96908.00;;;24.00
33267;BMP180;19638;49.080;11.896;2023-08-20T21:02:28;96899.00;;;23.90
33267;BMP180;19638;49.080;11.896;2023-08-20T21:06:34;96899.00;;;23.80
33267;BMP180;19638;49.080;11.896;2023-08-20T21:10:43;96899.00;;;23.80
33267;BMP180;19638;49.080;11.896;2023-08-20T21:14:47;96899.00;;;23.70
33267;BMP180;19638;49.080;11.896;2023-08-20T21:18:50;96897.00;;;23.60
33267;BMP180;19638;49.080;11.896;2023-08-20T21:22:53;96900.00;;;23.50
33267;BMP180;19638;49.080;11.896;2023-08-20T21:26:58;96897.00;;;23.50
33267;BMP180;19638;49.080;11.896;2023-08-20T21:31:01;96903.00;;;23.40
33267;BMP180;19638;49.080;11.896;2023-08-20T21:35:06;96902.00;;;23.30
33267;BMP180;19638;49.080;11.896;2023-08-20T21:39:10;96902.00;;;23.30
33267;BMP180;19638;49.080;11.896;2023-08-20T21:43:16;96903.00;;;23.20
33267;BMP180;19638;49.080;11.896;2023-08-20T21:47:25;96905.00;;;23.20
33267;BMP180;19638;49.080;11.896;2023-08-20T21:51:32;96912.00;;;23.10
33267;BMP180;19638;49.080;11.896;2023-08-20T21:55:40;96911.00;;;23.00
33267;BMP180;19638;49.080;11.896;2023-08-20T21:59:45;96911.00;;;22.90
33267;BMP180;19638;49.080;11.896;2023-08-20T22:03:53;96906.00;;;22.90
33267;BMP180;19638;49.080;11.896;2023-08-20T22:07:56;96918.00;;;22.90
33267;BMP180;19638;49.080;11.896;2023-08-20T22:12:04;96919.00;;;22.90
33267;BMP180;19638;49.080;11.896;2023-08-20T22:16:08;96915.00;;;22.90
33267;BMP180;19638;49.080;11.896;2023-08-20T22:20:11;96917.00;;;22.90
33267;BMP180;19638;49.080;11.896;2023-08-20T22:24:20;96920.00;;;22.80
33267;BMP180;19638;49.080;11.896;2023-08-20T22:28:25;96923.00;;;22.70
33267;BMP180;19638;49.080;11.896;2023-08-20T22:32:38;96928.00;;;22.70
33267;BMP180;19638;49.080;11.896;2023-08-20T22:36:45;96918.00;;;22.70
33267;BMP180;19638;49.080;11.896;2023-08-20T22:40:50;96920.00;;;22.60
33267;BMP180;19638;49.080;11.896;2023-08-20T22:44:54;96921.00;;;22.40
33267;BMP180;19638;49.080;11.896;2023-08-20T22:49:02;96921.00;;;22.30
33267;BMP180;19638;49.080;11.896;2023-08-20T22:53:05;96919.00;;;22.30
33267;BMP180;19638;49.080;11.896;2023-08-20T22:57:08;96928.00;;;22.30
33267;BMP180;19638;49.080;11.896;2023-08-20T23:01:14;96924.00;;;22.30
33267;BMP180;19638;49.080;11.896;2023-08-20T23:05:21;96923.00;;;22.20
33267;BMP180;19638;49.080;11.896;2023-08-20T23:09:24;96921.00;;;22.20
33267;BMP180;19638;49.080;11.896;2023-08-20T23:13:29;96912.00;;;22.20